Time;durP1;ratioP1;P1;durP2;ratioP2;P2;SDS_P1;SDS_P2;PMS_P1;PMS_P2;Temp;Humidity;BMP_temperature;BMP_pressure;BME280_temperature;BME280_humidity;BME280_pressure;Samples;Min_cycle;Max_cycle;Signal;HPM_P1;HPM_P2
2024/01/04 00:01:20;;;;;;;0.00;0.00;;;11.50;79.30;;;;;;5088613;28;21080;-28
2024/01/04 00:03:47;;;;;;;0.00;0.00;;;11.50;78.60;;;;;;5086872;28;20568;-27
2024/01/04 00:06:20;;;;;;;0.00;0.00;;;11.50;78.70;;;;;;5082990;28;20342;-27
2024/01/04 00:08:52;;;;;;;0.00;0.00;;;11.50;78.60;;;;;;5085953;28;20256;-28
2024/01/04 00:11:19;;;;;;;0.00;0.00;;;11.50;78.70;;;;;;5081367;28;20215;-27
2024/01/04 00:13:51;;;;;;;0.00;0.00;;;11.60;78.80;;;;;;5086685;28;20702;-27
2024/01/04 00:16:21;;;;;;;0.00;0.00;;;11.60;78.70;;;;;;5085704;28;20206;-28
2024/01/04 00:18:48;;;;;;;0.00;0.00;;;11.60;78.70;;;;;;5077524;28;20225;-27
2024/01/04 00:21:18;;;;;;;0.00;0.00;;;11.60;78.90;;;;;;5085826;28;20210;-27
2024/01/04 00:23:51;;;;;;;0.00;0.00;;;11.60;78.80;;;;;;5086651;28;20293;-27
2024/01/04 00:26:21;;;;;;;0.00;0.00;;;11.60;78.70;;;;;;5065608;28;20215;-27
2024/01/04 00:28:53;;;;;;;0.00;0.00;;;11.60;78.80;;;;;;5084081;28;20306;-27
2024/01/04 00:31:22;;;;;;;0.00;0.00;;;11.60;79.10;;;;;;5084880;28;20317;-27
2024/01/04 00:33:50;;;;;;;0.00;0.00;;;11.70;79.50;;;;;;5082107;28;20198;-27
2024/01/04 00:36:19;;;;;;;0.00;0.00;;;11.60;78.70;;;;;;5083377;28;20225;-27
2024/01/04 00:38:47;;;;;;;0.00;0.00;;;11.70;78.60;;;;;;5082328;28;20795;-27
2024/01/04 00:41:17;;;;;;;0.00;0.00;;;11.60;78.70;;;;;;5085302;28;20229;-27
2024/01/04 00:43:44;;;;;;;0.00;0.00;;;11.60;78.70;;;;;;5083092;28;20210;-27
2024/01/04 00:46:11;;;;;;;0.00;0.00;;;11.60;78.70;;;;;;5059973;28;20199;-27
2024/01/04 00:48:39;;;;;;;0.00;0.00;;;11.70;78.80;;;;;;5081140;28;20301;-27
2024/01/04 00:51:06;;;;;;;0.00;0.00;;;11.70;78.90;;;;;;5082073;28;20594;-27
2024/01/04 00:53:34;;;;;;;0.00;0.00;;;11.70;78.80;;;;;;5080750;28;20716;-27
2024/01/04 00:56:04;;;;;;;0.00;0.00;;;11.70;78.80;;;;;;5086636;28;20229;-27
2024/01/04 00:58:36;;;;;;;0.00;0.00;;;11.70;78.70;;;;;;5086307;28;20306;-27
2024/01/04 01:01:04;;;;;;;0.00;0.00;;;11.60;78.80;;;;;;5083862;28;20233;-27
2024/01/04 01:03:34;;;;;;;0.00;0.00;;;11.70;78.80;;;;;;5084003;28;20199;-27
2024/01/04 01:06:02;;;;;;;0.00;0.00;;;11.70;78.80;;;;;;5084053;28;20234;-27
2024/01/04 01:08:34;;;;;;;0.00;0.00;;;11.70;78.90;;;;;;5086108;28;20588;-27
2024/01/04 01:11:04;;;;;;;0.00;0.00;;;11.70;78.90;;;;;;5064772;28;20656;-27
2024/01/04 01:13:31;;;;;;;0.00;0.00;;;11.70;79.00;;;;;;5080766;28;20203;-27
2024/01/04 01:16:03;;;;;;;0.00;0.00;;;11.70;79.10;;;;;;5064216;28;20195;-27
2024/01/04 01:18:31;;;;;;;0.00;0.00;;;11.70;79.20;;;;;;5083958;28;20199;-27
2024/01/04 01:21:03;;;;;;;0.00;0.00;;;11.80;79.10;;;;;;5079179;28;20215;-27
2024/01/04 01:23:31;;;;;;;0.00;0.00;;;11.80;79.20;;;;;;5083801;28;20283;-27
2024/01/04 01:25:58;;;;;;;0.00;0.00;;;11.80;79.10;;;;;;5064268;28;20333;-27
2024/01/04 01:28:27;;;;;;;0.00;0.00;;;11.80;79.10;;;;;;5082117;28;20275;-27
2024/01/04 01:31:02;;;;;;;0.00;0.00;;;11.80;79.10;;;;;;5082156;28;20302;-28
2024/01/04 01:33:32;;;;;;;0.00;0.00;;;11.80;79.20;;;;;;5080867;28;20199;-28
2024/01/04 01:36:01;;;;;;;0.00;0.00;;;11.80;79.10;;;;;;5080543;28;20726;-28
2024/01/04 01:38:33;;;;;;;0.00;0.00;;;11.80;79.00;;;;;;5082197;28;20465;-28
2024/01/04 01:41:01;;;;;;;0.00;0.00;;;11.80;79.00;;;;;;5084974;28;20190;-28
2024/01/04 01:43:30;;;;;;;0.00;0.00;;;11.80;78.80;;;;;;5084310;28;20208;-28
2024/01/04 01:45:57;;;;;;;0.00;0.00;;;11.80;78.70;;;;;;5081366;28;21570;-28
2024/01/04 01:48:27;;;;;;;0.00;0.00;;;11.70;78.60;;;;;;5076855;28;20760;-28
2024/01/04 01:50:57;;;;;;;0.00;0.00;;;11.70;78.50;;;;;;5082895;28;20214;-28
2024/01/04 01:53:29;;;;;;;0.00;0.00;;;11.70;78.40;;;;;;5085274;28;20222;-28
2024/01/04 01:55:59;;;;;;;0.00;0.00;;;11.60;78.20;;;;;;5083777;28;20658;-28
2024/01/04 01:58:34;;;;;;;0.00;0.00;;;11.60;78.20;;;;;;5076995;28;20214;-28
2024/01/04 02:01:08;;;;;;;0.00;0.00;;;11.50;78.10;;;;;;5078225;28;20228;-28
2024/01/04 02:03:35;;;;;;;0.00;0.00;;;11.40;78.20;;;;;;5071809;28;20211;-28
2024/01/04 02:06:06;;;;;;;0.00;0.00;;;11.40;78.30;;;;;;5075156;28;20246;-28
2024/01/04 02:08:34;;;;;;;0.00;0.00;;;11.30;78.30;;;;;;5076745;28;20213;-28
2024/01/04 02:11:01;;;;;;;0.00;0.00;;;11.30;78.40;;;;;;5082091;28;20241;-28
2024/01/04 02:13:30;;;;;;;0.00;0.00;;;11.30;78.40;;;;;;5078243;28;20210;-28
2024/01/04 02:15:58;;;;;;;0.00;0.00;;;11.30;78.50;;;;;;5078750;28;20215;-28
2024/01/04 02:18:25;;;;;;;0.00;0.00;;;11.20;78.30;;;;;;5079272;28;20222;-28
2024/01/04 02:20:55;;;;;;;0.00;0.00;;;11.20;78.30;;;;;;5076359;28;20213;-28
2024/01/04 02:23:22;;;;;;;0.00;0.00;;;11.20;78.30;;;;;;5064646;28;20261;-28
2024/01/04 02:25:52;;;;;;;0.00;0.00;;;11.20;78.30;;;;;;5074067;28;20648;-28
2024/01/04 02:28:20;;;;;;;0.00;0.00;;;11.10;78.30;;;;;;5080621;28;20230;-28
2024/01/04 02:30:47;;;;;;;0.00;0.00;;;11.10;78.20;;;;;;5080543;28;20245;-28
2024/01/04 02:33:16;;;;;;;0.00;0.00;;;11.10;78.30;;;;;;5084148;28;20199;-28
2024/01/04 02:35:44;;;;;;;0.00;0.00;;;11.00;78.30;;;;;;5082672;28;20577;-28
2024/01/04 02:38:13;;;;;;;0.00;0.00;;;11.00;78.30;;;;;;5081379;28;20195;-28
2024/01/04 02:40:46;;;;;;;0.00;0.00;;;11.00;78.30;;;;;;5079106;28;20198;-28
2024/01/04 02:43:14;;;;;;;0.00;0.00;;;11.00;78.50;;;;;;5082127;28;20673;-28
2024/01/04 02:45:46;;;;;;;0.00;0.00;;;11.00;78.60;;;;;;5081279;28;20293;-28
2024/01/04 02:48:13;;;;;;;0.00;0.00;;;11.00;78.70;;;;;;5080378;28;20783;-28
2024/01/04 02:50:42;;;;;;;0.00;0.00;;;11.00;78.70;;;;;;5065720;28;20210;-28
2024/01/04 02:53:12;;;;;;;0.00;0.00;;;11.00;78.80;;;;;;5081194;28;20191;-28
2024/01/04 02:55:42;;;;;;;0.00;0.00;;;11.00;78.90;;;;;;5079402;28;20221;-28
2024/01/04 02:58:09;;;;;;;0.00;0.00;;;11.00;78.90;;;;;;5084856;28;20525;-28
2024/01/04 03:00:36;;;;;;;0.00;0.00;;;11.00;78.90;;;;;;5086157;28;20199;-28
2024/01/04 03:03:04;;;;;;;0.00;0.00;;;11.00;79.00;;;;;;5085647;28;20260;-28
2024/01/04 03:05:35;;;;;;;0.00;0.00;;;11.10;79.10;;;;;;5082933;28;20807;-28
2024/01/04 03:08:08;;;;;;;0.00;0.00;;;11.10;79.10;;;;;;5085462;28;20198;-28
2024/01/04 03:10:35;;;;;;;0.00;0.00;;;11.10;79.10;;;;;;5086336;28;20207;-28
2024/01/04 03:13:05;;;;;;;0.00;0.00;;;11.10;79.10;;;;;;5085817;28;20223;-28
2024/01/04 03:15:32;;;;;;;0.00;0.00;;;11.20;79.20;;;;;;5086823;28;20199;-28
2024/01/04 03:18:02;;;;;;;0.00;0.00;;;11.20;79.20;;;;;;5084465;28;20581;-28
2024/01/04 03:20:30;;;;;;;0.00;0.00;;;11.20;79.30;;;;;;5085131;28;20199;-28
2024/01/04 03:23:01;;;;;;;0.00;0.00;;;11.20;79.10;;;;;;5086338;28;20191;-28
2024/01/04 03:25:29;;;;;;;0.00;0.00;;;11.20;79.10;;;;;;5087093;28;20206;-28
2024/01/04 03:27:58;;;;;;;0.00;0.00;;;11.30;79.20;;;;;;5068136;28;20206;-28
2024/01/04 03:30:25;;;;;;;0.00;0.00;;;11.30;79.30;;;;;;5086551;28;20202;-28
2024/01/04 03:32:57;;;;;;;0.00;0.00;;;11.30;79.20;;;;;;5084030;28;21026;-28
2024/01/04 03:35:27;;;;;;;0.00;0.00;;;11.30;79.20;;;;;;5077180;28;20191;-28
2024/01/04 03:37:54;;;;;;;0.00;0.00;;;11.30;79.10;;;;;;5088999;28;20202;-28
2024/01/04 03:40:22;;;;;;;0.00;0.00;;;11.30;79.10;;;;;;5091259;28;20645;-28
2024/01/04 03:42:53;;;;;;;0.00;0.00;;;11.30;79.10;;;;;;5088179;28;20199;-28
2024/01/04 03:45:23;;;;;;;0.00;0.00;;;11.40;79.20;;;;;;5082901;28;20297;-28
2024/01/04 03:47:53;;;;;;;0.00;0.00;;;11.40;79.20;;;;;;5085630;28;20748;-28
2024/01/04 03:50:20;;;;;;;0.00;0.00;;;11.30;79.20;;;;;;5077550;28;20223;-28
2024/01/04 03:52:47;;;;;;;0.00;0.00;;;11.40;80.00;;;;;;5065894;28;21087;-28
2024/01/04 03:55:17;;;;;;;0.00;0.00;;;11.40;79.20;;;;;;5088328;28;20213;-28
2024/01/04 03:57:47;;;;;;;0.00;0.00;;;11.40;79.20;;;;;;5086958;28;20226;-28
2024/01/04 04:00:17;;;;;;;0.00;0.00;;;11.30;79.10;;;;;;5086770;28;20676;-28
2024/01/04 04:02:51;;;;;;;0.00;0.00;;;11.40;79.20;;;;;;5085708;28;20293;-28
2024/01/04 04:05:18;;;;;;;0.00;0.00;;;11.40;79.20;;;;;;5086357;28;20299;-28
2024/01/04 04:07:46;;;;;;;0.00;0.00;;;11.40;79.30;;;;;;5085623;28;20698;-28
2024/01/04 04:10:14;;;;;;;0.00;0.00;;;11.40;79.30;;;;;;5085709;28;20221;-28
2024/01/04 04:12:46;;;;;;;0.00;0.00;;;11.40;79.30;;;;;;5083552;28;20314;-28
2024/01/04 04:15:16;;;;;;;0.00;0.00;;;11.40;79.20;;;;;;5084561;28;20195;-28
2024/01/04 04:17:46;;;;;;;0.00;0.00;;;11.40;79.30;;;;;;5065650;28;20290;-28
2024/01/04 04:20:13;;;;;;;0.00;0.00;;;11.40;79.30;;;;;;5082504;28;20207;-28
2024/01/04 04:22:41;;;;;;;0.00;0.00;;;11.40;79.20;;;;;;5083372;28;20306;-27
2024/01/04 04:25:08;;;;;;;0.00;0.00;;;11.40;79.30;;;;;;5080418;28;20203;-27
2024/01/04 04:27:38;;;;;;;0.00;0.00;;;11.40;79.30;;;;;;5081962;28;20678;-27
2024/01/04 04:30:08;;;;;;;0.00;0.00;;;11.40;79.40;;;;;;5080856;28;20206;-28
2024/01/04 04:32:36;;;;;;;0.00;0.00;;;11.40;79.30;;;;;;5085622;28;20298;-28
2024/01/04 04:35:04;;;;;;;0.00;0.00;;;11.40;79.30;;;;;;5069774;28;20197;-28
2024/01/04 04:37:31;;;;;;;0.00;0.00;;;11.40;80.10;;;;;;5084377;28;20207;-27
2024/01/04 04:39:58;;;;;;;0.00;0.00;;;11.40;79.30;;;;;;5090254;28;20318;-27
2024/01/04 04:42:30;;;;;;;0.00;0.00;;;11.40;79.30;;;;;;5088078;28;20248;-27
2024/01/04 04:45:00;;;;;;;0.00;0.00;;;11.40;79.30;;;;;;5086055;28;20309;-27
2024/01/04 04:47:29;;;;;;;0.00;0.00;;;11.40;79.40;;;;;;5085245;28;20789;-28
2024/01/04 04:49:59;;;;;;;0.00;0.00;;;11.40;79.30;;;;;;5061744;28;20264;-27
2024/01/04 04:52:26;;;;;;;0.00;0.00;;;11.50;79.60;;;;;;5083719;28;20865;-27
2024/01/04 04:54:55;;;;;;;0.00;0.00;;;11.50;79.40;;;;;;5082823;28;20205;-27
2024/01/04 04:57:25;;;;;;;0.00;0.00;;;11.50;79.40;;;;;;5086266;28;20296;-27
2024/01/04 04:59:55;;;;;;;0.00;0.00;;;11.50;79.40;;;;;;5081972;28;20195;-27
2024/01/04 05:02:22;;;;;;;0.00;0.00;;;11.50;79.40;;;;;;5082442;28;20206;-28
2024/01/04 05:04:51;;;;;;;0.00;0.00;;;11.50;79.40;;;;;;5084104;28;20207;-28
2024/01/04 05:07:19;;;;;;;0.00;0.00;;;11.50;79.30;;;;;;5084995;28;20203;-27
2024/01/04 05:09:50;;;;;;;0.00;0.00;;;11.50;79.30;;;;;;5066575;28;20751;-27
2024/01/04 05:12:19;;;;;;;0.00;0.00;;;11.50;80.10;;;;;;5079548;28;20272;-27
2024/01/04 05:14:49;;;;;;;0.00;0.00;;;11.50;79.30;;;;;;5084584;28;20222;-27
2024/01/04 05:17:16;;;;;;;0.00;0.00;;;11.50;79.30;;;;;;5085277;28;20914;-27
2024/01/04 05:19:44;;;;;;;0.00;0.00;;;11.50;79.20;;;;;;5081837;28;20252;-27
2024/01/04 05:22:12;;;;;;;0.00;0.00;;;11.50;79.10;;;;;;5079026;28;20222;-27
2024/01/04 05:24:41;;;;;;;0.00;0.00;;;11.50;79.10;;;;;;5081737;28;20672;-27
2024/01/04 05:27:08;;;;;;;0.00;0.00;;;11.40;79.10;;;;;;5085250;28;20214;-27
2024/01/04 05:29:35;;;;;;;0.00;0.00;;;11.40;79.10;;;;;;5087129;28;20210;-27
2024/01/04 05:32:06;;;;;;;0.00;0.00;;;11.40;79.00;;;;;;5066213;28;20222;-27
2024/01/04 05:34:36;;;;;;;0.00;0.00;;;11.40;79.00;;;;;;5085817;28;20199;-27
2024/01/04 05:37:04;;;;;;;0.00;0.00;;;11.40;79.00;;;;;;5086991;28;20222;-27
2024/01/04 05:39:34;;;;;;;0.00;0.00;;;11.30;78.90;;;;;;5086204;28;20243;-27
2024/01/04 05:42:01;;;;;;;0.00;0.00;;;11.30;79.60;;;;;;5081849;28;20203;-28
2024/01/04 05:44:29;;;;;;;0.00;0.00;;;11.30;79.00;;;;;;5081610;28;20199;-27
2024/01/04 05:46:56;;;;;;;0.00;0.00;;;11.30;79.00;;;;;;5083262;28;20702;-27
2024/01/04 05:49:26;;;;;;;0.00;0.00;;;11.30;79.10;;;;;;5083069;28;20226;-27
2024/01/04 05:51:58;;;;;;;0.00;0.00;;;11.20;79.10;;;;;;5062191;28;20219;-27
2024/01/04 05:54:25;;;;;;;0.00;0.00;;;11.20;79.10;;;;;;5074064;28;20281;-27
2024/01/04 05:56:52;;;;;;;0.00;0.00;;;11.30;79.20;;;;;;5065377;28;20192;-27
2024/01/04 05:59:24;;;;;;;0.00;0.00;;;11.30;79.30;;;;;;5069753;28;20284;-27
2024/01/04 06:01:52;;;;;;;0.00;0.00;;;11.30;79.30;;;;;;5081414;28;20282;-27
2024/01/04 06:04:21;;;;;;;0.00;0.00;;;11.30;79.30;;;;;;5078160;28;20211;-27
2024/01/04 06:06:48;;;;;;;0.00;0.00;;;11.30;79.30;;;;;;5062384;28;20607;-27
2024/01/04 06:09:20;;;;;;;0.00;0.00;;;11.30;79.30;;;;;;5065448;28;20207;-27
2024/01/04 06:11:50;;;;;;;0.00;0.00;;;11.30;79.30;;;;;;5080328;28;20614;-27
2024/01/04 06:14:20;;;;;;;0.00;0.00;;;11.30;79.30;;;;;;5080710;28;20191;-27
2024/01/04 06:16:50;;;;;;;0.00;0.00;;;11.30;79.30;;;;;;5070618;28;20211;-27
2024/01/04 06:19:17;;;;;;;0.00;0.00;;;11.30;79.30;;;;;;5071371;28;20203;-27
2024/01/04 06:21:47;;;;;;;0.00;0.00;;;11.30;79.30;;;;;;5082644;28;20190;-27
2024/01/04 06:24:14;;;;;;;0.00;0.00;;;11.30;79.40;;;;;;5069249;28;20204;-27
2024/01/04 06:26:42;;;;;;;0.00;0.00;;;11.30;79.30;;;;;;5072865;28;20203;-27
2024/01/04 06:29:14;;;;;;;0.00;0.00;;;11.30;79.30;;;;;;5063262;28;20221;-27
2024/01/04 06:31:48;;;;;;;0.00;0.00;;;11.40;79.30;;;;;;5076174;28;20194;-27
2024/01/04 06:34:20;;;;;;;0.00;0.00;;;11.40;79.40;;;;;;5083556;28;20210;-27
2024/01/04 06:36:48;;;;;;;0.00;0.00;;;11.40;79.50;;;;;;5081068;28;20226;-27
2024/01/04 06:39:15;;;;;;;0.00;0.00;;;11.40;79.50;;;;;;5080696;28;21058;-26
2024/01/04 06:41:45;;;;;;;0.00;0.00;;;11.40;79.60;;;;;;5080885;28;20296;-27
2024/01/04 06:44:14;;;;;;;0.00;0.00;;;11.40;79.60;;;;;;5078766;28;20201;-27
2024/01/04 06:46:42;;;;;;;0.00;0.00;;;11.40;79.50;;;;;;5077923;28;20203;-27
2024/01/04 06:49:09;;;;;;;0.00;0.00;;;11.40;79.50;;;;;;5076009;28;20210;-27
2024/01/04 06:51:36;;;;;;;0.00;0.00;;;11.40;79.50;;;;;;5081448;28;20555;-27
2024/01/04 06:54:06;;;;;;;0.00;0.00;;;11.40;79.50;;;;;;5080191;28;20231;-27
2024/01/04 06:56:36;;;;;;;0.00;0.00;;;11.50;79.70;;;;;;5083112;28;20202;-27
2024/01/04 06:59:05;;;;;;;0.00;0.00;;;11.50;79.60;;;;;;5081601;28;20195;-27
2024/01/04 07:01:32;;;;;;;0.00;0.00;;;11.50;79.60;;;;;;5082765;28;20759;-27
2024/01/04 07:04:02;;;;;;;0.00;0.00;;;11.50;79.60;;;;;;5081873;28;20766;-27
2024/01/04 07:06:29;;;;;;;0.00;0.00;;;11.50;79.70;;;;;;5077657;28;20473;-27
2024/01/04 07:08:57;;;;;;;0.00;0.00;;;11.50;79.60;;;;;;5080027;28;20219;-27
2024/01/04 07:11:30;;;;;;;0.00;0.00;;;11.50;79.60;;;;;;5076903;28;20203;-28
2024/01/04 07:13:57;;;;;;;0.00;0.00;;;11.50;79.60;;;;;;5082189;28;20215;-27
2024/01/04 07:16:27;;;;;;;0.00;0.00;;;11.50;79.60;;;;;;5083194;28;20202;-27
2024/01/04 07:18:56;;;;;;;0.00;0.00;;;11.50;79.60;;;;;;5083346;28;20207;-27
2024/01/04 07:21:26;;;;;;;0.00;0.00;;;11.50;79.60;;;;;;5082469;28;20672;-27
2024/01/04 07:23:53;;;;;;;0.00;0.00;;;11.50;79.60;;;;;;5084330;28;20294;-27
2024/01/04 07:26:20;;;;;;;0.00;0.00;;;11.50;79.60;;;;;;5084545;28;20203;-27
2024/01/04 07:28:50;;;;;;;0.00;0.00;;;11.50;79.70;;;;;;5084646;28;20218;-27
2024/01/04 07:31:22;;;;;;;0.00;0.00;;;11.50;79.60;;;;;;5086596;28;20317;-27
2024/01/04 07:33:52;;;;;;;0.00;0.00;;;11.50;79.70;;;;;;5084780;28;20234;-27
2024/01/04 07:36:22;;;;;;;0.00;0.00;;;11.50;79.70;;;;;;5083579;28;20248;-27
2024/01/04 07:38:52;;;;;;;0.00;0.00;;;11.50;79.60;;;;;;5077654;28;20203;-27
2024/01/04 07:41:21;;;;;;;0.00;0.00;;;11.60;79.70;;;;;;5080068;28;20202;-27
2024/01/04 07:43:51;;;;;;;0.00;0.00;;;11.50;79.60;;;;;;5073751;28;20317;-27
2024/01/04 07:46:20;;;;;;;0.00;0.00;;;11.50;79.60;;;;;;5081940;28;20310;-28
2024/01/04 07:48:47;;;;;;;0.00;0.00;;;11.60;79.70;;;;;;5062210;28;20207;-27
2024/01/04 07:51:17;;;;;;;0.00;0.00;;;11.50;79.60;;;;;;5085767;28;20195;-28
2024/01/04 07:53:44;;;;;;;0.00;0.00;;;11.60;79.60;;;;;;5085185;28;20716;-27
2024/01/04 07:56:14;;;;;;;0.00;0.00;;;11.60;79.60;;;;;;5085212;28;20704;-27
2024/01/04 07:58:46;;;;;;;0.00;0.00;;;11.60;79.70;;;;;;5083929;28;20273;-28
2024/01/04 08:01:18;;;;;;;0.00;0.00;;;11.60;79.80;;;;;;5090151;28;20191;-27
2024/01/04 08:03:47;;;;;;;0.00;0.00;;;11.50;79.70;;;;;;5088185;28;20314;-27
2024/01/04 08:06:15;;;;;;;0.00;0.00;;;11.60;79.80;;;;;;5090143;28;20792;-28
2024/01/04 08:08:44;;;;;;;0.00;0.00;;;11.60;79.80;;;;;;5086528;28;20230;-27
2024/01/04 08:11:14;;;;;;;0.00;0.00;;;11.60;79.80;;;;;;5088811;28;20211;-27
2024/01/04 08:13:41;;;;;;;0.00;0.00;;;11.60;79.80;;;;;;5081712;28;20223;-27
2024/01/04 08:16:08;;;;;;;0.00;0.00;;;11.60;79.70;;;;;;5088426;28;20222;-27
2024/01/04 08:18:36;;;;;;;0.00;0.00;;;11.60;79.70;;;;;;5088151;28;20198;-27
2024/01/04 08:21:04;;;;;;;0.00;0.00;;;11.60;79.80;;;;;;5085504;28;20297;-27
2024/01/04 08:23:33;;;;;;;0.00;0.00;;;11.60;79.80;;;;;;5090030;28;20738;-27
2024/01/04 08:26:05;;;;;;;0.00;0.00;;;11.60;79.80;;;;;;5087422;28;20199;-27
2024/01/04 08:28:36;;;;;;;0.00;0.00;;;11.60;79.80;;;;;;5075515;28;20212;-27
2024/01/04 08:31:04;;;;;;;0.00;0.00;;;11.60;79.80;;;;;;5082710;28;20215;-27
2024/01/04 08:33:34;;;;;;;0.00;0.00;;;11.60;79.80;;;;;;5086868;28;20219;-27
2024/01/04 08:36:03;;;;;;;0.00;0.00;;;11.60;79.80;;;;;;5088008;28;20207;-27
2024/01/04 08:38:33;;;;;;;0.00;0.00;;;11.60;79.80;;;;;;5088310;28;20203;-27
2024/01/04 08:41:00;;;;;;;0.00;0.00;;;11.60;79.80;;;;;;5086251;28;20748;-27
2024/01/04 08:43:28;;;;;;;0.00;0.00;;;11.60;79.80;;;;;;5088468;28;20203;-27
2024/01/04 08:45:57;;;;;;;0.00;0.00;;;11.60;79.80;;;;;;5087516;28;20215;-27
2024/01/04 08:48:26;;;;;;;0.00;0.00;;;11.60;79.70;;;;;;5083236;28;20282;-27
2024/01/04 08:50:54;;;;;;;0.00;0.00;;;11.60;79.70;;;;;;5078854;28;20300;-27
2024/01/04 08:53:24;;;;;;;0.00;0.00;;;11.50;79.60;;;;;;5088854;28;20896;-27
2024/01/04 08:55:51;;;;;;;0.00;0.00;;;11.50;79.60;;;;;;5087316;28;20246;-28
2024/01/04 08:58:18;;;;;;;0.00;0.00;;;11.50;79.70;;;;;;5087541;28;20256;-27
2024/01/04 09:00:45;;;;;;;0.00;0.00;;;11.50;79.70;;;;;;5084763;28;20192;-27
2024/01/04 09:03:15;;;;;;;0.00;0.00;;;11.50;79.80;;;;;;5081606;28;20309;-27
2024/01/04 09:05:45;;;;;;;0.00;0.00;;;11.50;79.70;;;;;;5081226;28;20899;-27
2024/01/04 09:08:15;;;;;;;0.00;0.00;;;11.50;79.60;;;;;;5089199;28;20203;-27
2024/01/04 09:10:46;;;;;;;0.00;0.00;;;11.50;79.50;;;;;;5087378;28;20229;-27
2024/01/04 09:13:16;;;;;;;0.00;0.00;;;11.40;79.50;;;;;;5085077;28;20640;-27
2024/01/04 09:15:43;;;;;;;0.00;0.00;;;11.40;79.50;;;;;;5065975;28;20227;-27
2024/01/04 09:18:10;;;;;;;0.00;0.00;;;11.40;79.60;;;;;;5084424;28;20202;-26
2024/01/04 09:20:40;;;;;;;0.00;0.00;;;11.40;79.60;;;;;;5061973;28;20606;-27
2024/01/04 09:23:10;;;;;;;0.00;0.00;;;11.40;79.60;;;;;;5077172;28;20322;-27
2024/01/04 09:25:39;;;;;;;0.00;0.00;;;11.40;79.60;;;;;;5076495;28;20640;-27
2024/01/04 09:28:07;;;;;;;0.00;0.00;;;11.40;79.60;;;;;;5087740;28;20307;-27
2024/01/04 09:30:36;;;;;;;0.00;0.00;;;11.40;79.60;;;;;;5076517;28;20230;-27
2024/01/04 09:33:06;;;;;;;0.00;0.00;;;11.40;79.60;;;;;;5075284;28;20669;-27
2024/01/04 09:35:33;;;;;;;0.00;0.00;;;11.30;79.60;;;;;;5087625;28;20268;-26
2024/01/04 09:38:00;;;;;;;0.00;0.00;;;11.40;79.50;;;;;;5076314;28;20190;-27
2024/01/04 09:40:31;;;;;;;0.00;0.00;;;11.30;79.40;;;;;;5085857;28;20215;-27
2024/01/04 09:43:00;;;;;;;0.00;0.00;;;11.30;79.60;;;;;;5085448;28;20679;-28
2024/01/04 09:45:34;;;;;;;0.00;0.00;;;11.30;79.40;;;;;;5074723;28;20206;-27
2024/01/04 09:48:04;;;;;;;0.00;0.00;;;11.30;79.40;;;;;;5082432;28;20945;-27
2024/01/04 09:50:41;;;;;;;0.00;0.00;;;11.30;79.50;;;;;;5083933;28;20903;-27
2024/01/04 09:53:13;;;;;;;0.00;0.00;;;11.30;79.40;;;;;;5088090;28;20238;-27
2024/01/04 09:55:40;;;;;;;0.00;0.00;;;11.30;79.50;;;;;;5083969;28;20195;-26
2024/01/04 09:58:10;;;;;;;0.00;0.00;;;11.30;79.50;;;;;;5069580;28;20327;-27
2024/01/04 10:00:40;;;;;;;0.00;0.00;;;11.30;79.60;;;;;;5087159;28;20207;-26
2024/01/04 10:03:13;;;;;;;0.00;0.00;;;11.30;79.60;;;;;;5083196;28;20208;-27
2024/01/04 10:05:42;;;;;;;0.00;0.00;;;11.30;79.60;;;;;;5079521;28;20234;-26
2024/01/04 10:08:23;;;;;;;0.00;0.00;;;11.30;79.60;;;;;;5085623;28;20286;-27
2024/01/04 10:10:54;;;;;;;0.00;0.00;;;11.30;79.80;;;;;;5071512;28;20675;-27
2024/01/04 10:13:21;;;;;;;0.00;0.00;;;11.30;79.60;;;;;;5085896;28;20226;-27
2024/01/04 10:15:51;;;;;;;0.00;0.00;;;11.30;79.60;;;;;;5082294;28;20195;-27
2024/01/04 10:18:21;;;;;;;0.00;0.00;;;11.30;79.30;;;;;;5083257;28;20566;-27
2024/01/04 10:21:03;;;;;;;0.00;0.00;;;11.30;79.60;;;;;;5065616;28;20224;-26
2024/01/04 10:23:33;;;;;;;0.00;0.00;;;11.30;79.60;;;;;;5084709;28;20202;-27
2024/01/04 10:26:11;;;;;;;0.00;0.00;;;11.30;79.60;;;;;;5077649;28;20188;-27
2024/01/04 10:28:40;;;;;;;0.00;0.00;;;11.30;79.50;;;;;;5084317;28;20213;-27
2024/01/04 10:31:09;;;;;;;0.00;0.00;;;11.30;79.60;;;;;;5078547;28;20596;-27
2024/01/04 10:33:38;;;;;;;0.00;0.00;;;11.30;79.60;;;;;;5085054;28;20218;-27
2024/01/04 10:36:09;;;;;;;0.00;0.00;;;11.30;79.60;;;;;;5065024;28;20203;-27
2024/01/04 10:38:39;;;;;;;0.00;0.00;;;11.30;79.40;;;;;;5068178;28;20195;-27
2024/01/04 10:41:06;;;;;;;0.00;0.00;;;11.30;79.50;;;;;;5081835;28;20824;-27
2024/01/04 10:43:34;;;;;;;0.00;0.00;;;11.30;79.20;;;;;;5081413;28;20218;-27
2024/01/04 10:46:08;;;;;;;0.00;0.00;;;11.30;79.60;;;;;;5081844;28;20190;-27
2024/01/04 10:48:37;;;;;;;0.00;0.00;;;11.40;79.60;;;;;;5082050;28;20248;-27
2024/01/04 10:51:09;;;;;;;0.00;0.00;;;11.40;79.50;;;;;;5086755;28;20203;-26
2024/01/04 10:53:38;;;;;;;0.00;0.00;;;11.40;79.30;;;;;;5080716;28;20713;-27
2024/01/04 10:56:08;;;;;;;0.00;0.00;;;11.40;79.50;;;;;;5075498;28;20204;-28
2024/01/04 10:58:40;;;;;;;0.00;0.00;;;11.40;79.60;;;;;;5080154;28;20288;-27
2024/01/04 11:01:10;;;;;;;0.00;0.00;;;11.40;79.50;;;;;;5080084;28;20209;-28
2024/01/04 11:03:41;;;;;;;0.00;0.00;;;11.40;79.50;;;;;;5068256;28;20207;-28
2024/01/04 11:06:09;;;;;;;0.00;0.00;;;11.50;79.40;;;;;;5072885;28;20504;-27
2024/01/04 11:08:37;;;;;;;0.00;0.00;;;11.50;79.50;;;;;;5085589;28;20218;-27
2024/01/04 11:11:09;;;;;;;0.00;0.00;;;11.50;79.60;;;;;;5085190;28;20206;-27
2024/01/04 11:13:37;;;;;;;0.00;0.00;;;11.50;79.40;;;;;;5083625;28;20288;-27
2024/01/04 11:16:35;;;;;;;0.00;0.00;;;11.50;79.60;;;;;;5087080;28;20217;-26
2024/01/04 11:19:22;;;;;;;0.00;0.00;;;11.50;79.50;;;;;;5084909;28;20215;-27
2024/01/04 11:22:17;;;;;;;0.00;0.00;;;11.50;79.30;;;;;;5082338;28;20215;-26
2024/01/04 11:25:17;;;;;;;0.00;0.00;;;11.50;79.50;;;;;;5082641;28;20264;-26
2024/01/04 11:27:47;;;;;;;0.00;0.00;;;11.50;79.60;;;;;;5087178;28;20225;-27
2024/01/04 11:30:15;;;;;;;0.00;0.00;;;11.50;79.50;;;;;;5089911;28;20207;-26
2024/01/04 11:32:50;;;;;;;0.00;0.00;;;11.50;79.60;;;;;;5089301;28;20622;-27
2024/01/04 11:35:21;;;;;;;0.00;0.00;;;11.50;79.60;;;;;;5086950;28;20214;-26
2024/01/04 11:37:51;;;;;;;0.00;0.00;;;11.50;79.50;;;;;;5090356;28;20368;-26
2024/01/04 11:40:29;;;;;;;0.00;0.00;;;11.60;79.70;;;;;;5087076;28;20511;-27
2024/01/04 11:42:56;;;;;;;0.00;0.00;;;11.60;79.50;;;;;;5086626;28;20755;-26
2024/01/04 11:45:26;;;;;;;0.00;0.00;;;11.60;79.30;;;;;;5087311;28;20207;-26
2024/01/04 11:47:56;;;;;;;0.00;0.00;;;11.60;79.30;;;;;;5089830;28;20206;-26
2024/01/04 11:50:30;;;;;;;0.00;0.00;;;11.60;79.40;;;;;;5076526;28;20294;-27
2024/01/04 11:53:06;;;;;;;0.00;0.00;;;11.60;78.90;;;;;;5069883;28;20207;-26
2024/01/04 11:55:36;;;;;;;0.00;0.00;;;11.60;79.20;;;;;;5085804;28;20597;-26
2024/01/04 11:58:08;;;;;;;0.00;0.00;;;11.60;79.40;;;;;;5074628;28;20274;-26
2024/01/04 12:00:40;;;;;;;0.00;0.00;;;11.50;79.30;;;;;;5083217;28;20211;-26
2024/01/04 12:03:17;;;;;;;0.00;0.00;;;11.50;79.10;;;;;;5081208;28;20230;-27
2024/01/04 12:05:51;;;;;;;0.00;0.00;;;11.50;79.40;;;;;;5063822;28;20231;-27
2024/01/04 12:08:25;;;;;;;0.00;0.00;;;11.50;79.40;;;;;;5065915;28;20230;-26
2024/01/04 12:10:53;;;;;;;0.00;0.00;;;11.50;78.90;;;;;;5081832;28;20218;-26
2024/01/04 12:13:23;;;;;;;0.00;0.00;;;11.50;78.90;;;;;;5070258;28;20211;-26
2024/01/04 12:15:51;;;;;;;0.00;0.00;;;11.50;79.30;;;;;;5091338;28;20959;-26
2024/01/04 12:18:20;;;;;;;0.00;0.00;;;11.50;79.40;;;;;;5074532;28;20219;-26
2024/01/04 12:20:54;;;;;;;0.00;0.00;;;11.60;79.40;;;;;;5070395;28;20195;-26
2024/01/04 12:23:38;;;;;;;0.00;0.00;;;11.60;79.20;;;;;;5083938;28;20602;-27
2024/01/04 12:26:08;;;;;;;0.00;0.00;;;11.60;79.00;;;;;;5087165;28;20217;-26
2024/01/04 12:28:38;;;;;;;0.00;0.00;;;11.60;79.20;;;;;;5088852;28;20199;-26
2024/01/04 12:31:07;;;;;;;0.00;0.00;;;11.60;79.10;;;;;;5086972;28;20203;-26
2024/01/04 12:33:42;;;;;;;0.00;0.00;;;11.60;79.20;;;;;;5067458;28;20557;-26
2024/01/04 12:36:11;;;;;;;0.00;0.00;;;11.60;79.20;;;;;;5086006;28;20577;-26
2024/01/04 12:38:38;;;;;;;0.00;0.00;;;11.60;79.20;;;;;;5086259;28;20391;-26
2024/01/04 12:41:19;;;;;;;0.00;0.00;;;11.60;79.20;;;;;;5077875;28;21019;-26
2024/01/04 12:43:50;;;;;;;0.00;0.00;;;11.60;79.30;;;;;;5083711;28;20229;-27
2024/01/04 12:46:22;;;;;;;0.00;0.00;;;11.60;78.90;;;;;;5076688;28;20219;-26
2024/01/04 12:48:53;;;;;;;0.00;0.00;;;11.70;79.40;;;;;;5067230;28;20204;-26
2024/01/04 12:51:27;;;;;;;0.00;0.00;;;11.70;79.30;;;;;;5067696;28;20199;-26
2024/01/04 12:53:56;;;;;;;0.00;0.00;;;11.70;79.30;;;;;;5086400;28;20223;-27
2024/01/04 12:56:26;;;;;;;0.00;0.00;;;11.70;79.40;;;;;;5051312;28;20192;-26
2024/01/04 12:58:56;;;;;;;0.00;0.00;;;11.70;79.20;;;;;;5080754;28;20529;-26
2024/01/04 13:01:28;;;;;;;0.00;0.00;;;11.70;79.30;;;;;;5088383;28;20203;-26